Time;durP1;ratioP1;P1;durP2;ratioP2;P2;SDS_P1;SDS_P2;PMS_P1;PMS_P2;Temp;Humidity;BMP_temperature;BMP_pressure;BME280_temperature;BME280_humidity;BME280_pressure;Samples;Min_cycle;Max_cycle;Signal;HPM_P1;HPM_P2
2022/03/10 00:00:24;;;;;;;4.18;3.20;;;;;;;;;;5087952;28;20044;-74
2022/03/10 00:02:50;;;;;;;6.18;3.45;;;;;;;;;;5070027;28;20540;-74
2022/03/10 00:05:18;;;;;;;4.65;3.15;;;;;;;;;;5069288;28;20040;-74
2022/03/10 00:07:44;;;;;;;4.60;3.08;;;;;;;;;;5087707;28;20058;-74
2022/03/10 00:10:10;;;;;;;6.55;3.58;;;;;;;;;;5087546;28;20452;-74
2022/03/10 00:12:36;;;;;;;4.13;3.03;;;;;;;;;;5069727;28;20039;-74
2022/03/10 00:15:10;;;;;;;4.20;3.20;;;;;;;;;;5086948;28;20040;-74
2022/03/10 00:17:36;;;;;;;6.30;3.60;;;;;;;;;;5087401;28;20093;-73
2022/03/10 00:20:03;;;;;;;5.05;3.22;;;;;;;;;;5069755;28;20052;-73
2022/03/10 00:22:29;;;;;;;5.80;3.40;;;;;;;;;;5069542;28;20040;-74
2022/03/10 00:24:55;;;;;;;5.55;3.03;;;;;;;;;;5087161;28;20096;-74
2022/03/10 00:27:21;;;;;;;4.68;3.15;;;;;;;;;;5069694;28;20079;-73
2022/03/10 00:29:47;;;;;;;5.30;3.33;;;;;;;;;;5087779;28;20047;-73
2022/03/10 00:32:15;;;;;;;4.97;3.20;;;;;;;;;;5087612;28;20722;-73
2022/03/10 00:34:41;;;;;;;5.22;3.03;;;;;;;;;;5066064;28;20143;-73
2022/03/10 00:37:07;;;;;;;4.88;3.40;;;;;;;;;;5068749;28;20143;-73
2022/03/10 00:39:33;;;;;;;4.97;3.20;;;;;;;;;;5070494;28;20163;-73
2022/03/10 00:41:59;;;;;;;4.30;2.90;;;;;;;;;;5069635;28;20347;-73
2022/03/10 00:44:25;;;;;;;4.38;3.08;;;;;;;;;;5071046;28;20044;-73
2022/03/10 00:46:51;;;;;;;6.00;3.15;;;;;;;;;;5069283;28;20122;-73
2022/03/10 00:49:17;;;;;;;4.28;3.05;;;;;;;;;;5070030;28;20063;-73
2022/03/10 00:51:45;;;;;;;5.00;3.30;;;;;;;;;;5070695;28;20040;-73
2022/03/10 00:54:11;;;;;;;5.38;3.92;;;;;;;;;;5069787;28;20502;-73
2022/03/10 00:56:37;;;;;;;5.00;3.30;;;;;;;;;;5070404;28;20135;-73
2022/03/10 00:59:03;;;;;;;5.88;3.25;;;;;;;;;;5069732;28;20446;-74
2022/03/10 01:01:29;;;;;;;4.47;3.08;;;;;;;;;;5070708;28;20032;-73
2022/03/10 01:03:55;;;;;;;12.32;3.92;;;;;;;;;;5070846;28;20131;-74
2022/03/10 01:06:21;;;;;;;11.68;4.03;;;;;;;;;;5071247;28;20518;-72
2022/03/10 01:08:47;;;;;;;8.32;3.45;;;;;;;;;;5069691;28;20478;-73
2022/03/10 01:11:13;;;;;;;6.15;3.33;;;;;;;;;;5070660;28;20149;-72
2022/03/10 01:13:39;;;;;;;14.98;3.53;;;;;;;;;;5069991;28;20056;-72
2022/03/10 01:16:05;;;;;;;5.10;3.47;;;;;;;;;;5070124;28;20044;-72
2022/03/10 01:18:31;;;;;;;4.65;3.20;;;;;;;;;;5070602;28;20040;-72
2022/03/10 01:20:57;;;;;;;6.55;3.50;;;;;;;;;;5070318;28;20052;-72
2022/03/10 01:23:23;;;;;;;6.63;3.53;;;;;;;;;;5068593;28;20052;-72
2022/03/10 01:25:49;;;;;;;6.03;3.13;;;;;;;;;;5070384;28;20152;-72
2022/03/10 01:28:15;;;;;;;5.90;2.95;;;;;;;;;;5069934;28;20051;-72
2022/03/10 01:30:42;;;;;;;6.25;3.28;;;;;;;;;;5070397;28;20058;-72
2022/03/10 01:33:09;;;;;;;5.57;3.05;;;;;;;;;;5069412;28;20144;-73
2022/03/10 01:35:35;;;;;;;7.03;3.35;;;;;;;;;;5070527;28;20040;-73
2022/03/10 01:38:01;;;;;;;5.10;3.00;;;;;;;;;;5070811;28;20041;-73
2022/03/10 01:40:27;;;;;;;5.63;2.85;;;;;;;;;;5070299;28;20099;-72
2022/03/10 01:42:53;;;;;;;4.25;3.13;;;;;;;;;;5070818;28;20449;-72
2022/03/10 01:45:19;;;;;;;5.35;3.40;;;;;;;;;;5070456;28;20064;-72
2022/03/10 01:47:45;;;;;;;4.25;2.95;;;;;;;;;;5069459;28;20052;-73
2022/03/10 01:50:12;;;;;;;8.45;3.20;;;;;;;;;;5068833;28;20044;-73
2022/03/10 01:52:39;;;;;;;3.97;2.70;;;;;;;;;;5070387;28;20056;-72
2022/03/10 01:55:06;;;;;;;5.13;3.17;;;;;;;;;;5069204;28;20044;-73
2022/03/10 01:57:32;;;;;;;4.75;3.05;;;;;;;;;;5069985;28;20092;-73
2022/03/10 01:59:58;;;;;;;4.55;3.15;;;;;;;;;;5069163;28;20411;-73
2022/03/10 02:02:24;;;;;;;5.45;2.90;;;;;;;;;;5069874;28;20446;-73
2022/03/10 02:04:51;;;;;;;5.40;2.58;;;;;;;;;;5070258;28;20132;-73
2022/03/10 02:10:16;;;;;;;5.40;4.07;;;;;;;;;;5070462;28;20135;-74
2022/03/10 02:12:48;;;;;;;4.72;3.10;;;;;;;;;;5069872;28;20043;-71
2022/03/10 02:18:01;;;;;;;5.30;3.83;;;;;;;;;;5068733;28;20056;-76
2022/03/10 02:20:27;;;;;;;4.65;2.90;;;;;;;;;;5068437;28;20044;-74
2022/03/10 02:22:54;;;;;;;4.22;2.97;;;;;;;;;;5069800;28;20414;-76
2022/03/10 02:25:24;;;;;;;5.15;2.85;;;;;;;;;;5068628;28;20165;-76
2022/03/10 02:27:51;;;;;;;4.82;2.80;;;;;;;;;;5067882;28;20410;-73
2022/03/10 02:30:18;;;;;;;5.32;3.15;;;;;;;;;;5069408;28;20033;-73
2022/03/10 02:32:44;;;;;;;3.65;2.65;;;;;;;;;;5070338;28;20044;-73
2022/03/10 02:35:10;;;;;;;5.28;2.90;;;;;;;;;;5071085;28;20373;-73
2022/03/10 02:37:36;;;;;;;4.93;3.40;;;;;;;;;;5088636;28;20414;-73
2022/03/10 02:40:03;;;;;;;4.65;2.80;;;;;;;;;;5089306;28;20048;-72
2022/03/10 02:42:31;;;;;;;5.18;2.63;;;;;;;;;;5089208;28;20127;-73
2022/03/10 02:44:57;;;;;;;4.72;2.97;;;;;;;;;;5088550;28;20044;-72
2022/03/10 02:47:23;;;;;;;10.10;3.67;;;;;;;;;;5088673;28;20131;-75
2022/03/10 02:49:49;;;;;;;3.83;2.90;;;;;;;;;;5088749;28;20105;-75
2022/03/10 02:52:15;;;;;;;5.95;3.20;;;;;;;;;;5088667;28;20052;-74
2022/03/10 02:54:42;;;;;;;8.38;3.30;;;;;;;;;;5088933;28;20083;-75
2022/03/10 02:57:08;;;;;;;5.18;3.00;;;;;;;;;;5088689;28;20072;-75
2022/03/10 02:59:34;;;;;;;3.67;2.92;;;;;;;;;;5069994;28;20063;-75
2022/03/10 03:02:02;;;;;;;4.53;2.90;;;;;;;;;;5070678;28;20058;-75
2022/03/10 03:04:28;;;;;;;6.18;2.90;;;;;;;;;;5088804;28;20052;-73
2022/03/10 03:06:54;;;;;;;4.03;2.80;;;;;;;;;;5088712;28;20486;-71
2022/03/10 03:09:20;;;;;;;4.30;2.70;;;;;;;;;;5088463;28;20165;-71
2022/03/10 03:11:46;;;;;;;7.70;2.83;;;;;;;;;;5069912;28;20048;-71
2022/03/10 03:14:12;;;;;;;6.50;3.70;;;;;;;;;;5070319;28;20055;-72
2022/03/10 03:16:39;;;;;;;4.75;2.80;;;;;;;;;;5088276;28;20039;-71
2022/03/10 03:19:05;;;;;;;10.48;2.92;;;;;;;;;;5088258;28;20126;-72
2022/03/10 03:21:32;;;;;;;5.20;2.85;;;;;;;;;;5088380;28;20055;-73
2022/03/10 03:23:58;;;;;;;4.07;2.85;;;;;;;;;;5087947;28;20123;-72
2022/03/10 03:26:24;;;;;;;9.02;3.50;;;;;;;;;;5088315;28;20044;-75
2022/03/10 03:28:50;;;;;;;4.65;2.97;;;;;;;;;;5070186;28;20048;-73
2022/03/10 03:31:16;;;;;;;6.20;3.20;;;;;;;;;;5070188;28;20494;-73
2022/03/10 03:33:42;;;;;;;8.80;3.40;;;;;;;;;;5087920;28;20060;-73
2022/03/10 03:36:09;;;;;;;4.70;2.80;;;;;;;;;;5088013;28;20131;-73
2022/03/10 03:38:36;;;;;;;4.30;2.72;;;;;;;;;;5069643;28;20066;-73
2022/03/10 03:41:02;;;;;;;6.03;3.10;;;;;;;;;;5070104;28;20056;-73
2022/03/10 03:43:28;;;;;;;6.25;3.22;;;;;;;;;;5088244;28;20048;-73
2022/03/10 03:45:56;;;;;;;5.28;3.35;;;;;;;;;;5087953;28;20040;-73
2022/03/10 03:48:23;;;;;;;6.32;3.03;;;;;;;;;;5088423;28;20062;-73
2022/03/10 03:50:49;;;;;;;4.55;3.03;;;;;;;;;;5088129;28;20120;-73
2022/03/10 03:53:18;;;;;;;6.75;3.17;;;;;;;;;;5088553;28;20041;-73
2022/03/10 03:55:44;;;;;;;7.63;3.08;;;;;;;;;;5088751;28;20109;-73
2022/03/10 03:58:12;;;;;;;4.50;3.28;;;;;;;;;;5070628;28;20544;-73
2022/03/10 04:00:38;;;;;;;4.57;2.80;;;;;;;;;;5088458;28;20093;-73
2022/03/10 04:03:11;;;;;;;5.43;2.50;;;;;;;;;;5053317;28;20052;-73
2022/03/10 04:05:38;;;;;;;5.85;3.20;;;;;;;;;;5088584;28;20040;-73
2022/03/10 04:08:05;;;;;;;6.88;2.92;;;;;;;;;;5088543;28;20093;-73
2022/03/10 04:10:31;;;;;;;3.85;2.60;;;;;;;;;;5088513;28;20480;-73
2022/03/10 04:12:58;;;;;;;6.85;2.90;;;;;;;;;;5072608;28;20494;-73
2022/03/10 04:15:24;;;;;;;4.40;2.92;;;;;;;;;;5092367;28;20116;-73
2022/03/10 04:17:53;;;;;;;5.82;2.83;;;;;;;;;;5092300;28;20084;-73
2022/03/10 04:20:19;;;;;;;4.15;3.20;;;;;;;;;;5092415;28;20047;-75
2022/03/10 04:22:45;;;;;;;5.28;2.92;;;;;;;;;;5092200;28;20483;-73
2022/03/10 04:25:11;;;;;;;4.38;2.90;;;;;;;;;;5092197;28;20040;-73
2022/03/10 04:27:38;;;;;;;4.43;2.88;;;;;;;;;;5091439;28;20044;-74
2022/03/10 04:30:04;;;;;;;4.47;3.00;;;;;;;;;;5057178;28;20043;-74
2022/03/10 04:32:39;;;;;;;4.32;3.17;;;;;;;;;;5091893;28;20057;-74
2022/03/10 04:35:05;;;;;;;3.30;2.50;;;;;;;;;;5091794;28;20048;-73
2022/03/10 04:37:31;;;;;;;4.35;2.75;;;;;;;;;;5073916;28;20415;-73
2022/03/10 04:39:58;;;;;;;5.95;3.38;;;;;;;;;;5091332;28;20485;-73
2022/03/10 04:42:24;;;;;;;4.68;3.20;;;;;;;;;;5091795;28;20052;-73
2022/03/10 04:44:51;;;;;;;4.05;2.75;;;;;;;;;;5091978;28;20075;-73
2022/03/10 04:47:17;;;;;;;4.53;2.95;;;;;;;;;;5091713;28;20052;-73
2022/03/10 04:49:44;;;;;;;4.28;2.83;;;;;;;;;;5073218;28;20409;-73
2022/03/10 04:52:10;;;;;;;3.70;2.70;;;;;;;;;;5091550;28;20052;-73
2022/03/10 04:54:36;;;;;;;3.90;2.75;;;;;;;;;;5073263;28;20490;-73
2022/03/10 04:57:02;;;;;;;4.43;3.05;;;;;;;;;;5073443;28;20113;-73
2022/03/10 04:59:31;;;;;;;5.65;2.90;;;;;;;;;;5073530;28;20350;-73
2022/03/10 05:01:57;;;;;;;4.13;2.90;;;;;;;;;;5073477;28;20097;-73
2022/03/10 05:04:23;;;;;;;4.63;2.90;;;;;;;;;;5091412;28;20044;-73
2022/03/10 05:06:49;;;;;;;4.97;3.47;;;;;;;;;;5090770;28;20048;-73
2022/03/10 05:09:15;;;;;;;4.50;2.60;;;;;;;;;;5073337;28;20044;-73
2022/03/10 05:11:41;;;;;;;5.55;2.78;;;;;;;;;;5072983;28;20048;-73
2022/03/10 05:14:07;;;;;;;4.95;3.15;;;;;;;;;;5056437;28;20083;-74
2022/03/10 05:16:37;;;;;;;4.70;2.60;;;;;;;;;;5090854;28;20047;-74
2022/03/10 05:19:03;;;;;;;4.05;2.83;;;;;;;;;;5072565;28;20055;-74
2022/03/10 05:21:29;;;;;;;3.78;2.38;;;;;;;;;;5091017;28;20101;-74
2022/03/10 05:23:55;;;;;;;4.88;2.72;;;;;;;;;;5090582;28;20048;-75
2022/03/10 05:26:21;;;;;;;5.68;2.60;;;;;;;;;;5073285;28;20382;-75
2022/03/10 05:28:47;;;;;;;3.95;2.42;;;;;;;;;;5072776;28;20402;-74
2022/03/10 05:31:13;;;;;;;4.80;3.13;;;;;;;;;;5091013;28;20418;-74
2022/03/10 05:33:39;;;;;;;5.07;2.80;;;;;;;;;;5090914;28;20090;-73
2022/03/10 05:36:05;;;;;;;4.20;2.72;;;;;;;;;;5090968;28;20047;-73
2022/03/10 05:38:31;;;;;;;6.28;3.20;;;;;;;;;;5090514;28;20051;-74
2022/03/10 05:40:57;;;;;;;6.78;2.80;;;;;;;;;;5090691;28;20047;-73
2022/03/10 05:43:23;;;;;;;7.65;2.72;;;;;;;;;;5089946;28;20043;-73
2022/03/10 05:45:49;;;;;;;3.65;2.67;;;;;;;;;;5089776;28;20082;-73
2022/03/10 05:48:15;;;;;;;5.60;3.50;;;;;;;;;;5071991;28;20410;-73
2022/03/10 05:50:42;;;;;;;7.35;3.20;;;;;;;;;;5071806;28;20577;-73
2022/03/10 05:53:09;;;;;;;6.35;2.85;;;;;;;;;;5089336;28;20048;-73
2022/03/10 05:55:35;;;;;;;10.38;2.90;;;;;;;;;;5090106;28;20039;-73
2022/03/10 05:58:01;;;;;;;5.70;3.00;;;;;;;;;;5089912;28;20131;-73
2022/03/10 06:00:27;;;;;;;4.43;2.90;;;;;;;;;;5089670;28;20040;-73
2022/03/10 06:02:53;;;;;;;6.82;3.00;;;;;;;;;;5089252;28;20040;-72
2022/03/10 06:05:19;;;;;;;6.45;3.20;;;;;;;;;;5089759;28;20477;-73
2022/03/10 06:07:45;;;;;;;4.70;2.95;;;;;;;;;;5071620;28;20480;-73
2022/03/10 06:10:11;;;;;;;4.93;3.17;;;;;;;;;;5089886;28;20039;-73
2022/03/10 06:12:37;;;;;;;4.28;2.58;;;;;;;;;;5088802;28;20514;-73
2022/03/10 06:15:05;;;;;;;5.20;3.30;;;;;;;;;;5089329;28;20052;-72
2022/03/10 06:17:31;;;;;;;4.03;2.65;;;;;;;;;;5088994;28;20051;-72
2022/03/10 06:19:57;;;;;;;4.20;2.53;;;;;;;;;;5089589;28;20412;-72
2022/03/10 06:22:25;;;;;;;4.65;3.05;;;;;;;;;;5089243;28;20413;-72
2022/03/10 06:24:51;;;;;;;4.63;2.55;;;;;;;;;;5089593;28;20047;-72
2022/03/10 06:27:18;;;;;;;3.95;2.80;;;;;;;;;;5087535;28;20040;-74
2022/03/10 06:29:44;;;;;;;5.32;3.00;;;;;;;;;;5071166;28;20050;-74
2022/03/10 06:32:12;;;;;;;5.15;3.33;;;;;;;;;;5071558;28;20135;-74
2022/03/10 06:34:38;;;;;;;5.07;2.90;;;;;;;;;;5088911;28;20048;-73
2022/03/10 06:37:05;;;;;;;7.00;2.97;;;;;;;;;;5089460;28;20087;-74
2022/03/10 06:39:32;;;;;;;5.72;2.67;;;;;;;;;;5071291;28;20055;-75
2022/03/10 06:41:58;;;;;;;3.78;2.60;;;;;;;;;;5089694;28;20065;-72
2022/03/10 06:44:24;;;;;;;6.15;2.63;;;;;;;;;;5088898;28;20048;-73
2022/03/10 06:46:58;;;;;;;5.18;2.67;;;;;;;;;;5088990;28;20130;-73
2022/03/10 06:49:24;;;;;;;4.90;3.25;;;;;;;;;;5087292;28;20200;-74
2022/03/10 06:51:50;;;;;;;4.00;2.80;;;;;;;;;;5088161;28;20506;-76
2022/03/10 06:54:17;;;;;;;5.43;3.00;;;;;;;;;;5088782;28;20052;-73
2022/03/10 06:56:44;;;;;;;4.07;2.60;;;;;;;;;;5088259;28;20050;-74
2022/03/10 06:59:10;;;;;;;4.28;2.95;;;;;;;;;;5070098;28;20052;-74
2022/03/10 07:01:36;;;;;;;5.75;3.03;;;;;;;;;;5088386;28;20040;-74
2022/03/10 07:04:02;;;;;;;5.15;2.78;;;;;;;;;;5088547;28;20126;-76
2022/03/10 07:06:29;;;;;;;4.30;2.60;;;;;;;;;;5070475;28;20040;-74
2022/03/10 07:08:55;;;;;;;5.32;2.83;;;;;;;;;;5088649;28;20051;-74
2022/03/10 07:11:21;;;;;;;5.03;3.05;;;;;;;;;;5089230;28;20061;-74
2022/03/10 07:13:47;;;;;;;3.83;2.85;;;;;;;;;;5088904;28;20459;-72
2022/03/10 07:16:14;;;;;;;4.60;2.75;;;;;;;;;;5071024;28;20060;-72
2022/03/10 07:18:40;;;;;;;5.60;3.00;;;;;;;;;;5088784;28;20323;-70
2022/03/10 07:21:06;;;;;;;3.85;2.75;;;;;;;;;;5087972;28;20075;-72
2022/03/10 07:23:32;;;;;;;4.35;2.67;;;;;;;;;;5088858;28;20512;-72
2022/03/10 07:25:58;;;;;;;5.90;2.75;;;;;;;;;;5070739;28;20089;-74
2022/03/10 07:28:24;;;;;;;4.82;2.83;;;;;;;;;;5088451;28;20044;-74
2022/03/10 07:30:51;;;;;;;5.07;2.85;;;;;;;;;;5088192;28;20498;-73
2022/03/10 07:33:17;;;;;;;4.38;2.50;;;;;;;;;;5088505;28;20048;-72
2022/03/10 07:35:44;;;;;;;6.03;2.75;;;;;;;;;;5088638;28;20051;-73
2022/03/10 07:38:10;;;;;;;3.90;2.70;;;;;;;;;;5070545;28;20448;-73
2022/03/10 07:40:37;;;;;;;3.97;2.70;;;;;;;;;;5070309;28;20040;-72
2022/03/10 07:43:03;;;;;;;6.13;3.05;;;;;;;;;;5071055;28;20044;-74
2022/03/10 07:45:29;;;;;;;6.60;2.85;;;;;;;;;;5070404;28;20047;-72
2022/03/10 07:47:55;;;;;;;6.63;2.83;;;;;;;;;;5074964;28;20405;-74
2022/03/10 07:50:23;;;;;;;16.98;3.50;;;;;;;;;;5092696;28;20044;-73
2022/03/10 07:52:49;;;;;;;10.80;3.17;;;;;;;;;;5074857;28;20074;-72
2022/03/10 07:55:15;;;;;;;5.22;3.10;;;;;;;;;;5092746;28;20130;-72
2022/03/10 07:57:41;;;;;;;8.25;2.90;;;;;;;;;;5074418;28;20080;-73
2022/03/10 08:00:08;;;;;;;11.13;3.50;;;;;;;;;;5092078;28;20051;-72
2022/03/10 08:02:35;;;;;;;7.53;3.30;;;;;;;;;;5092724;28;20109;-74
2022/03/10 08:05:01;;;;;;;5.32;3.20;;;;;;;;;;5092959;28;20048;-72
2022/03/10 08:07:32;;;;;;;8.40;3.90;;;;;;;;;;5074248;28;20109;-73
2022/03/10 08:09:58;;;;;;;5.63;3.00;;;;;;;;;;5092608;28;20040;-72
2022/03/10 08:12:27;;;;;;;4.40;3.15;;;;;;;;;;5092073;28;20036;-71
2022/03/10 08:14:53;;;;;;;6.32;3.42;;;;;;;;;;5092035;28;20390;-70
2022/03/10 08:17:21;;;;;;;6.55;3.25;;;;;;;;;;5091218;28;20409;-72
2022/03/10 08:19:47;;;;;;;4.68;2.90;;;;;;;;;;5071130;28;20115;-73
2022/03/10 08:22:15;;;;;;;6.38;3.15;;;;;;;;;;5091602;28;20051;-72
2022/03/10 08:24:41;;;;;;;6.32;3.40;;;;;;;;;;5091632;28;20124;-73
2022/03/10 08:27:07;;;;;;;5.90;2.97;;;;;;;;;;5090978;28;20040;-73
2022/03/10 08:29:33;;;;;;;5.05;3.08;;;;;;;;;;5090441;28;20166;-73
2022/03/10 08:31:59;;;;;;;4.43;3.00;;;;;;;;;;5091213;28;20040;-73
2022/03/10 08:34:26;;;;;;;3.85;2.90;;;;;;;;;;5091233;28;20082;-73
2022/03/10 08:36:52;;;;;;;3.88;2.90;;;;;;;;;;5089891;28;20497;-73
2022/03/10 08:39:18;;;;;;;6.10;3.17;;;;;;;;;;5090927;28;20101;-74
2022/03/10 08:41:44;;;;;;;5.60;3.13;;;;;;;;;;5091366;28;20381;-73
2022/03/10 08:44:12;;;;;;;4.60;3.08;;;;;;;;;;5091151;28;20455;-73
2022/03/10 08:46:38;;;;;;;4.15;2.90;;;;;;;;;;5090346;28;20135;-72
2022/03/10 08:49:05;;;;;;;4.68;3.30;;;;;;;;;;5089982;28;20524;-73
2022/03/10 08:51:31;;;;;;;3.97;2.80;;;;;;;;;;5090243;28;20193;-72
2022/03/10 08:53:57;;;;;;;4.57;3.25;;;;;;;;;;5090936;28;20055;-72
2022/03/10 08:56:23;;;;;;;4.75;2.80;;;;;;;;;;5091799;28;20050;-72
2022/03/10 08:58:49;;;;;;;4.78;2.97;;;;;;;;;;5088760;28;20044;-72
2022/03/10 09:01:15;;;;;;;6.13;3.08;;;;;;;;;;5090795;28;20177;-75
2022/03/10 09:03:41;;;;;;;4.63;3.10;;;;;;;;;;5072816;28;20036;-70
2022/03/10 09:06:10;;;;;;;7.65;2.92;;;;;;;;;;5089923;28;20052;-70
2022/03/10 09:08:36;;;;;;;5.97;3.10;;;;;;;;;;5072373;28;20052;-71
2022/03/10 09:11:03;;;;;;;5.80;3.70;;;;;;;;;;5091020;28;20062;-70
2022/03/10 09:13:29;;;;;;;5.30;3.47;;;;;;;;;;5089132;28;20531;-70
2022/03/10 09:15:55;;;;;;;6.05;3.22;;;;;;;;;;5090578;28;20079;-74
2022/03/10 09:18:21;;;;;;;5.13;3.30;;;;;;;;;;5089258;28;20105;-74
2022/03/10 09:20:47;;;;;;;4.47;3.35;;;;;;;;;;5055756;28;20048;-75
2022/03/10 09:23:14;;;;;;;5.75;3.33;;;;;;;;;;5090719;28;20467;-74
2022/03/10 09:25:40;;;;;;;5.22;3.33;;;;;;;;;;5089025;28;20109;-76
2022/03/10 09:28:07;;;;;;;5.70;3.33;;;;;;;;;;5090600;28;20048;-74
2022/03/10 09:30:33;;;;;;;4.90;3.50;;;;;;;;;;5090366;28;20048;-74
2022/03/10 09:33:01;;;;;;;7.78;3.30;;;;;;;;;;5088401;28;20117;-75
2022/03/10 09:35:27;;;;;;;5.13;3.47;;;;;;;;;;5072364;28;20078;-75
2022/03/10 09:37:53;;;;;;;5.90;3.22;;;;;;;;;;5089913;28;20093;-75
2022/03/10 09:40:19;;;;;;;4.88;3.72;;;;;;;;;;5090018;28;20071;-76
2022/03/10 09:42:49;;;;;;;5.43;3.35;;;;;;;;;;5088843;28;20044;-76
2022/03/10 09:45:16;;;;;;;4.85;3.35;;;;;;;;;;5088971;28;20043;-75
2022/03/10 09:47:44;;;;;;;7.93;3.60;;;;;;;;;;5089998;28;20382;-75
2022/03/10 09:50:14;;;;;;;6.88;3.17;;;;;;;;;;5090190;28;20076;-75
2022/03/10 09:52:41;;;;;;;5.45;3.70;;;;;;;;;;5054625;28;20125;-74
2022/03/10 09:55:07;;;;;;;5.88;3.72;;;;;;;;;;5072027;28;20040;-73
2022/03/10 09:57:37;;;;;;;5.28;3.58;;;;;;;;;;5090262;28;20062;-74
2022/03/10 10:00:05;;;;;;;5.82;3.55;;;;;;;;;;5090767;28;20071;-73
2022/03/10 10:02:31;;;;;;;5.55;3.80;;;;;;;;;;5070980;28;20040;-74
2022/03/10 10:04:57;;;;;;;5.18;3.50;;;;;;;;;;5066946;28;20131;-74
2022/03/10 10:07:29;;;;;;;6.10;3.92;;;;;;;;;;5057534;28;20150;-73
2022/03/10 10:09:57;;;;;;;5.13;3.80;;;;;;;;;;5088575;28;20052;-73
2022/03/10 10:12:27;;;;;;;4.97;3.58;;;;;;;;;;5088796;28;20044;-74
2022/03/10 10:14:53;;;;;;;5.50;3.70;;;;;;;;;;5089151;28;20048;-75
2022/03/10 10:17:26;;;;;;;5.15;3.40;;;;;;;;;;5088836;28;20441;-74
2022/03/10 10:19:57;;;;;;;5.60;3.45;;;;;;;;;;5071289;28;20056;-73
2022/03/10 10:22:24;;;;;;;5.53;3.67;;;;;;;;;;5070482;28;20159;-75
2022/03/10 10:24:54;;;;;;;5.35;3.67;;;;;;;;;;5089266;28;20058;-74
2022/03/10 10:27:21;;;;;;;7.60;3.38;;;;;;;;;;5089080;28;20105;-74
2022/03/10 10:29:47;;;;;;;5.13;3.67;;;;;;;;;;5088931;28;20130;-72
2022/03/10 10:32:23;;;;;;;6.65;3.85;;;;;;;;;;5088945;28;20048;-70
2022/03/10 10:34:57;;;;;;;5.72;4.10;;;;;;;;;;5070221;28;20528;-69
2022/03/10 10:37:24;;;;;;;6.63;4.20;;;;;;;;;;5088031;28;20040;-70
2022/03/10 10:39:53;;;;;;;6.00;3.75;;;;;;;;;;5088849;28;20052;-69
2022/03/10 10:42:19;;;;;;;5.38;3.72;;;;;;;;;;5088066;28;20044;-70
2022/03/10 10:44:46;;;;;;;5.18;3.78;;;;;;;;;;5088579;28;20130;-69
2022/03/10 10:47:12;;;;;;;7.45;3.70;;;;;;;;;;5070257;28;20047;-68
2022/03/10 10:49:38;;;;;;;6.10;4.03;;;;;;;;;;5070514;28;20132;-70
2022/03/10 10:52:10;;;;;;;5.55;3.67;;;;;;;;;;5088464;28;20040;-70
2022/03/10 10:54:36;;;;;;;5.40;3.75;;;;;;;;;;5088311;28;20048;-69
2022/03/10 10:57:07;;;;;;;6.70;4.18;;;;;;;;;;5088235;28;20051;-69
2022/03/10 10:59:34;;;;;;;6.28;3.72;;;;;;;;;;5054013;28;20044;-69
2022/03/10 11:02:10;;;;;;;7.38;4.20;;;;;;;;;;5069455;28;20637;-70
2022/03/10 11:04:36;;;;;;;6.75;4.00;;;;;;;;;;5086944;28;20135;-69
2022/03/10 11:07:03;;;;;;;6.47;4.20;;;;;;;;;;5087938;28;20433;-69
2022/03/10 11:09:31;;;;;;;5.75;4.15;;;;;;;;;;5088042;28;20040;-69
2022/03/10 11:11:57;;;;;;;5.10;4.15;;;;;;;;;;5088182;28;20104;-69
2022/03/10 11:14:24;;;;;;;5.63;3.80;;;;;;;;;;5087874;28;20123;-70
2022/03/10 11:16:50;;;;;;;6.78;4.28;;;;;;;;;;5087671;28;20151;-69
2022/03/10 11:19:25;;;;;;;5.05;3.83;;;;;;;;;;5087971;28;21025;-69
2022/03/10 11:22:10;;;;;;;5.63;3.78;;;;;;;;;;5052516;28;20071;-69
2022/03/10 11:24:54;;;;;;;6.85;3.58;;;;;;;;;;5087100;28;20076;-70
2022/03/10 11:27:37;;;;;;;6.13;3.92;;;;;;;;;;5087784;28;20044;-69
2022/03/10 11:30:04;;;;;;;6.70;4.00;;;;;;;;;;5069107;28;20055;-71
2022/03/10 11:32:31;;;;;;;6.65;4.07;;;;;;;;;;5087326;28;20067;-71
2022/03/10 11:35:00;;;;;;;7.13;3.70;;;;;;;;;;5087385;28;20066;-70
2022/03/10 11:37:42;;;;;;;5.68;4.00;;;;;;;;;;5069586;28;20132;-71
2022/03/10 11:40:37;;;;;;;5.88;4.20;;;;;;;;;;5087736;28;20055;-71
2022/03/10 11:43:03;;;;;;;5.80;3.85;;;;;;;;;;5087709;28;20040;-70
2022/03/10 11:45:31;;;;;;;5.72;3.65;;;;;;;;;;5069125;28;20082;-71
2022/03/10 11:48:17;;;;;;;6.55;4.35;;;;;;;;;;5069412;28;20130;-71
2022/03/10 11:50:43;;;;;;;6.90;3.95;;;;;;;;;;5052081;28;20066;-71
2022/03/10 11:53:12;;;;;;;6.53;4.38;;;;;;;;;;5069208;28;20052;-68
2022/03/10 11:55:39;;;;;;;6.53;4.20;;;;;;;;;;5087627;28;20044;-69
2022/03/10 11:58:06;;;;;;;7.60;4.00;;;;;;;;;;5087385;28;20051;-68
2022/03/10 12:00:41;;;;;;;6.60;3.92;;;;;;;;;;5087617;28;20398;-69
2022/03/10 12:03:11;;;;;;;5.57;4.03;;;;;;;;;;5069415;28;20052;-69
2022/03/10 12:05:55;;;;;;;8.35;3.85;;;;;;;;;;5086420;28;20051;-68
2022/03/10 12:08:22;;;;;;;8.85;4.00;;;;;;;;;;5087930;28;20052;-68
2022/03/10 12:10:49;;;;;;;6.93;3.85;;;;;;;;;;5069984;28;20055;-69
2022/03/10 12:13:30;;;;;;;6.43;3.70;;;;;;;;;;5087897;28;20098;-68
2022/03/10 12:15:57;;;;;;;6.32;3.95;;;;;;;;;;5087074;28;20097;-68
2022/03/10 12:18:24;;;;;;;5.93;3.97;;;;;;;;;;5086327;28;20048;-70
2022/03/10 12:20:53;;;;;;;6.13;4.18;;;;;;;;;;5086122;28;20060;-70
2022/03/10 12:23:22;;;;;;;5.38;3.83;;;;;;;;;;5081760;28;20485;-71
2022/03/10 12:26:09;;;;;;;4.90;3.67;;;;;;;;;;5086667;28;20113;-68
2022/03/10 12:28:35;;;;;;;6.63;4.45;;;;;;;;;;5052514;28;20314;-71
2022/03/10 12:31:01;;;;;;;5.57;3.60;;;;;;;;;;5087699;28;20101;-71
2022/03/10 12:33:28;;;;;;;6.75;3.55;;;;;;;;;;5088877;28;20048;-70
2022/03/10 12:35:58;;;;;;;5.53;4.18;;;;;;;;;;5073138;28;20048;-69
2022/03/10 12:38:50;;;;;;;5.25;3.90;;;;;;;;;;5091179;28;20439;-71
2022/03/10 12:41:18;;;;;;;7.70;4.07;;;;;;;;;;5087016;28;20059;-71
2022/03/10 12:43:44;;;;;;;5.45;3.85;;;;;;;;;;5090032;28;20075;-70
2022/03/10 12:46:10;;;;;;;6.45;4.20;;;;;;;;;;5091026;28;20112;-70
2022/03/10 12:48:46;;;;;;;6.20;4.07;;;;;;;;;;5090899;28;20052;-70
2022/03/10 12:51:25;;;;;;;6.10;4.50;;;;;;;;;;5077932;28;20374;-72
2022/03/10 12:53:52;;;;;;;6.20;4.03;;;;;;;;;;5090811;28;20120;-69
2022/03/10 12:56:19;;;;;;;6.05;4.28;;;;;;;;;;5090900;28;20047;-71
2022/03/10 12:58:46;;;;;;;9.27;4.35;;;;;;;;;;5071531;28;20048;-70
2022/03/10 13:01:13;;;;;;;7.50;4.13;;;;;;;;;;5090620;28;20147;-70
2022/03/10 13:03:49;;;;;;;7.43;4.47;;;;;;;;;;5091174;28;20070;-71
2022/03/10 13:06:16;;;;;;;8.50;5.35;;;;;;;;;;5072883;28;20047;-71
2022/03/10 13:08:43;;;;;;;13.48;7.00;;;;;;;;;;5055947;28;20059;-71
2022/03/10 13:11:10;;;;;;;16.33;7.70;;;;;;;;;;5072421;28;20052;-73
2022/03/10 13:13:36;;;;;;;16.98;9.32;;;;;;;;;;5088494;28;20044;-72
2022/03/10 13:16:04;;;;;;;18.23;9.55;;;;;;;;;;5086624;28;20043;-72
2022/03/10 13:18:40;;;;;;;20.00;9.25;;;;;;;;;;5090394;28;20093;-71
2022/03/10 13:21:06;;;;;;;17.75;9.48;;;;;;;;;;5068576;28;20044;-73
2022/03/10 13:23:33;;;;;;;19.92;8.88;;;;;;;;;;5089623;28;20128;-72
2022/03/10 13:25:59;;;;;;;25.95;9.13;;;;;;;;;;5055432;28;20121;-75
2022/03/10 13:28:25;;;;;;;16.40;7.93;;;;;;;;;;5067941;28;20083;-75
2022/03/10 13:30:51;;;;;;;17.90;8.35;;;;;;;;;;5090083;28;20131;-75
2022/03/10 13:33:18;;;;;;;24.25;9.35;;;;;;;;;;5089167;28;20472;-76
2022/03/10 13:35:50;;;;;;;17.80;8.25;;;;;;;;;;5071343;28;20525;-75
2022/03/10 13:38:18;;;;;;;22.25;7.95;;;;;;;;;;5070879;28;20052;-75
2022/03/10 13:40:44;;;;;;;18.05;8.05;;;;;;;;;;5071751;28;20163;-75
2022/03/10 13:43:19;;;;;;;14.13;7.35;;;;;;;;;;5090438;28;20395;-75
2022/03/10 13:45:45;;;;;;;19.27;8.50;;;;;;;;;;5054555;28;20048;-76
2022/03/10 13:48:18;;;;;;;18.58;8.05;;;;;;;;;;5089841;28;20051;-76
2022/03/10 13:50:44;;;;;;;14.13;7.40;;;;;;;;;;5089882;28;20052;-77
2022/03/10 13:53:10;;;;;;;18.05;8.32;;;;;;;;;;5071468;28;20113;-76
2022/03/10 13:55:37;;;;;;;14.13;7.55;;;;;;;;;;5089958;28;20064;-75
2022/03/10 13:58:05;;;;;;;17.02;7.93;;;;;;;;;;5089510;28;20040;-75
2022/03/10 14:00:35;;;;;;;15.63;7.35;;;;;;;;;;5089476;28;20044;-76
2022/03/10 14:03:05;;;;;;;16.27;7.00;;;;;;;;;;5055053;28;20048;-75
2022/03/10 14:05:50;;;;;;;15.60;6.43;;;;;;;;;;5089360;28;20370;-76
2022/03/10 14:08:17;;;;;;;13.23;6.75;;;;;;;;;;5088315;28;20135;-76
2022/03/10 14:10:44;;;;;;;15.77;7.68;;;;;;;;;;5054039;28;20051;-75
2022/03/10 14:13:11;;;;;;;15.68;7.00;;;;;;;;;;5089312;28;20044;-76
2022/03/10 14:15:39;;;;;;;13.50;7.07;;;;;;;;;;5070804;28;20456;-74
2022/03/10 14:18:12;;;;;;;13.43;7.10;;;;;;;;;;5088131;28;20044;-75
2022/03/10 14:20:46;;;;;;;13.20;6.50;;;;;;;;;;5088404;28;20059;-73
2022/03/10 14:23:18;;;;;;;11.93;6.28;;;;;;;;;;5089500;28;20433;-73
2022/03/10 14:25:45;;;;;;;11.80;6.05;;;;;;;;;;5089110;28;20127;-73
2022/03/10 14:28:11;;;;;;;16.35;6.95;;;;;;;;;;5089395;28;20396;-74
2022/03/10 14:30:37;;;;;;;15.15;7.15;;;;;;;;;;5088986;28;20052;-74
2022/03/10 14:33:04;;;;;;;13.55;6.55;;;;;;;;;;5089382;28;20131;-76
2022/03/10 14:35:31;;;;;;;14.00;6.40;;;;;;;;;;5054654;28;20054;-75
2022/03/10 14:37:57;;;;;;;12.88;6.53;;;;;;;;;;5088067;28;20032;-76
2022/03/10 14:40:23;;;;;;;14.18;6.97;;;;;;;;;;5088107;28;20056;-77
2022/03/10 14:42:49;;;;;;;11.68;6.75;;;;;;;;;;5088542;28;20062;-75
2022/03/10 14:45:16;;;;;;;12.75;6.80;;;;;;;;;;5089217;28;20048;-73
2022/03/10 14:47:42;;;;;;;14.10;6.47;;;;;;;;;;5084457;28;20052;-74